Bridgeport, Oregon
Current Conditions -  °F | °C
As of 3:53 PM on Monday 20 Oct 2014 (Local Time) from KBKE Reporting Station
Clear Clear  
Wind Chill: 74°   Ceiling: Unl
Heat Index: 74°   Visibility: 10mi
Dew Point: 25°   Wind: 18mph
Humidity: 16%   Direction: 170°S
Pressure: 29.75"   Gusts: NA
Location:  44.49°N, 117.74°W
Report Text: KBKE 202253Z AUTO 17016KT 10SM CLR 23/M04 A2975 RMK AO2 SLP061 T02331039
Loading
Personal Weather Stations






























Interactive Weather Map
Tropical Storm Tracking
New forecast layout! Learn more

10-Day Weather Forecast

Advertisements
Track Severe Weather on mobile